sensor_id;sensor_type;location;lat;lon;timestamp;pressure;altitude;pressure_sealevel;temperature;humidity
48204;BME280;33994;50.998;5.864;2022-08-03T00:02:39;101045.81;;;21.29;66.75
48204;BME280;33994;50.998;5.864;2022-08-03T00:05:43;101040.75;;;21.25;66.83
48204;BME280;33994;50.998;5.864;2022-08-03T00:08:47;101034.47;;;21.26;67.06
48204;BME280;33994;50.998;5.864;2022-08-03T00:11:51;101038.09;;;21.25;66.75
48204;BME280;33994;50.998;5.864;2022-08-03T00:14:56;101038.25;;;21.22;66.89
48204;BME280;33994;50.998;5.864;2022-08-03T00:18:00;101041.09;;;21.19;66.83
48204;BME280;33994;50.998;5.864;2022-08-03T00:21:04;101034.34;;;21.11;67.02
48204;BME280;33994;50.998;5.864;2022-08-03T00:24:09;101044.25;;;21.09;67.14
48204;BME280;33994;50.998;5.864;2022-08-03T00:27:13;101041.75;;;21.06;67.49
48204;BME280;33994;50.998;5.864;2022-08-03T00:30:18;101049.97;;;21.02;67.63
48204;BME280;33994;50.998;5.864;2022-08-03T00:33:22;101047.38;;;21.00;67.68
48204;BME280;33994;50.998;5.864;2022-08-03T00:36:27;101039.78;;;20.94;67.91
48204;BME280;33994;50.998;5.864;2022-08-03T00:39:31;101039.78;;;20.94;67.83
48204;BME280;33994;50.998;5.864;2022-08-03T00:42:46;101041.47;;;20.95;68.21
48204;BME280;33994;50.998;5.864;2022-08-03T00:45:51;101039.56;;;20.97;67.76
48204;BME280;33994;50.998;5.864;2022-08-03T00:48:56;101045.09;;;20.94;67.98
48204;BME280;33994;50.998;5.864;2022-08-03T00:52:01;101042.59;;;20.91;68.03
48204;BME280;33994;50.998;5.864;2022-08-03T00:55:05;101038.28;;;20.88;68.28
48204;BME280;33994;50.998;5.864;2022-08-03T00:58:09;101041.78;;;20.89;68.29
48204;BME280;33994;50.998;5.864;2022-08-03T01:01:14;101038.28;;;20.88;68.16
48204;BME280;33994;50.998;5.864;2022-08-03T01:04:18;101040.19;;;20.86;68.23
48204;BME280;33994;50.998;5.864;2022-08-03T01:11:18;101027.63;;;20.73;68.87
48204;BME280;33994;50.998;5.864;2022-08-03T01:14:32;101028.59;;;20.72;69.09
48204;BME280;33994;50.998;5.864;2022-08-03T01:17:56;101030.53;;;20.68;68.98
48204;BME280;33994;50.998;5.864;2022-08-03T01:21:09;101029.06;;;20.62;69.11
48204;BME280;33994;50.998;5.864;2022-08-03T01:31:38;101022.34;;;20.55;69.63
48204;BME280;33994;50.998;5.864;2022-08-03T01:34:51;101018.00;;;20.54;69.60
48204;BME280;33994;50.998;5.864;2022-08-03T01:38:03;101009.56;;;20.46;69.74
48204;BME280;33994;50.998;5.864;2022-08-03T01:41:16;101014.28;;;20.41;70.01
48204;BME280;33994;50.998;5.864;2022-08-03T01:44:22;101010.94;;;20.37;69.94
48204;BME280;33994;50.998;5.864;2022-08-03T01:47:28;101009.19;;;20.36;69.96
48204;BME280;33994;50.998;5.864;2022-08-03T01:50:33;101013.66;;;20.36;70.00
48204;BME280;33994;50.998;5.864;2022-08-03T01:53:39;101007.56;;;20.34;70.03
48204;BME280;33994;50.998;5.864;2022-08-03T01:56:46;101006.75;;;20.32;70.08
48204;BME280;33994;50.998;5.864;2022-08-03T01:59:54;101002.38;;;20.31;70.16
48204;BME280;33994;50.998;5.864;2022-08-03T02:03:00;101002.69;;;20.25;69.96
48204;BME280;33994;50.998;5.864;2022-08-03T02:06:07;101006.31;;;20.24;70.15
48204;BME280;33994;50.998;5.864;2022-08-03T02:09:13;101002.69;;;20.25;70.06
48204;BME280;33994;50.998;5.864;2022-08-03T02:12:19;101003.66;;;20.24;70.17
48204;BME280;33994;50.998;5.864;2022-08-03T02:15:26;101004.59;;;20.23;70.18
48204;BME280;33994;50.998;5.864;2022-08-03T02:18:32;101000.28;;;20.20;70.16
48204;BME280;33994;50.998;5.864;2022-08-03T02:21:37;101002.25;;;20.16;70.38
48204;BME280;33994;50.998;5.864;2022-08-03T02:24:41;100999.84;;;20.12;70.37
48204;BME280;33994;50.998;5.864;2022-08-03T02:27:50;101000.84;;;20.09;70.61
48204;BME280;33994;50.998;5.864;2022-08-03T02:30:57;101009.75;;;20.08;70.55
48204;BME280;33994;50.998;5.864;2022-08-03T02:34:07;101001.78;;;20.08;70.59
48204;BME280;33994;50.998;5.864;2022-08-03T02:37:12;101010.69;;;20.07;70.39
48204;BME280;33994;50.998;5.864;2022-08-03T02:40:19;101001.94;;;20.05;70.55
48204;BME280;33994;50.998;5.864;2022-08-03T02:43:24;100998.53;;;20.03;70.45
48204;BME280;33994;50.998;5.864;2022-08-03T02:46:34;101000.38;;;20.01;70.57
48204;BME280;33994;50.998;5.864;2022-08-03T02:49:40;100996.97;;;19.99;70.69
48204;BME280;33994;50.998;5.864;2022-08-03T02:52:46;101003.28;;;19.97;70.69
48204;BME280;33994;50.998;5.864;2022-08-03T02:55:52;100997.28;;;19.93;70.82
48204;BME280;33994;50.998;5.864;2022-08-03T02:58:58;100991.34;;;19.88;70.86
48204;BME280;33994;50.998;5.864;2022-08-03T03:02:03;100991.56;;;19.83;70.98
48204;BME280;33994;50.998;5.864;2022-08-03T03:05:09;100997.91;;;19.81;71.10
48204;BME280;33994;50.998;5.864;2022-08-03T03:08:16;100991.03;;;19.77;71.15
48204;BME280;33994;50.998;5.864;2022-08-03T03:11:22;101000.22;;;19.69;71.48
48204;BME280;33994;50.998;5.864;2022-08-03T03:14:28;100998.72;;;19.64;71.52
48204;BME280;33994;50.998;5.864;2022-08-03T03:17:33;100990.94;;;19.61;71.83
48204;BME280;33994;50.998;5.864;2022-08-03T03:20:38;100992.72;;;19.60;71.82
48204;BME280;33994;50.998;5.864;2022-08-03T03:23:42;100993.50;;;19.62;71.79
48204;BME280;33994;50.998;5.864;2022-08-03T03:26:47;100996.16;;;19.62;71.79
48204;BME280;33994;50.998;5.864;2022-08-03T03:29:51;100994.38;;;19.63;71.85
48204;BME280;33994;50.998;5.864;2022-08-03T03:32:57;101003.56;;;19.56;71.93
48204;BME280;33994;50.998;5.864;2022-08-03T03:36:02;101002.19;;;19.47;72.38
48204;BME280;33994;50.998;5.864;2022-08-03T03:39:08;100996.28;;;19.42;72.55
48204;BME280;33994;50.998;5.864;2022-08-03T03:42:12;101001.88;;;19.36;72.95
48204;BME280;33994;50.998;5.864;2022-08-03T03:45:17;101010.75;;;19.35;72.78
48204;BME280;33994;50.998;5.864;2022-08-03T03:48:23;101001.00;;;19.35;72.96
48204;BME280;33994;50.998;5.864;2022-08-03T03:51:27;100998.34;;;19.35;72.90
48204;BME280;33994;50.998;5.864;2022-08-03T03:54:39;101005.47;;;19.35;72.99
48204;BME280;33994;50.998;5.864;2022-08-03T03:57:44;100994.75;;;19.36;72.84
48204;BME280;33994;50.998;5.864;2022-08-03T04:00:49;100999.06;;;19.39;72.86
48204;BME280;33994;50.998;5.864;2022-08-03T04:03:55;101000.06;;;19.36;73.01
48204;BME280;33994;50.998;5.864;2022-08-03T04:06:59;100992.97;;;19.37;72.91
48204;BME280;33994;50.998;5.864;2022-08-03T04:10:25;100991.41;;;19.33;73.29
48204;BME280;33994;50.998;5.864;2022-08-03T04:13:54;100995.84;;;19.32;73.33
48204;BME280;33994;50.998;5.864;2022-08-03T04:17:08;100995.00;;;19.32;73.27
48204;BME280;33994;50.998;5.864;2022-08-03T04:20:14;100990.69;;;19.29;73.22
48204;BME280;33994;50.998;5.864;2022-08-03T04:23:21;100996.00;;;19.29;73.42
48204;BME280;33994;50.998;5.864;2022-08-03T04:26:30;100997.16;;;19.24;73.67
48204;BME280;33994;50.998;5.864;2022-08-03T04:29:38;100985.00;;;19.19;73.72
48204;BME280;33994;50.998;5.864;2022-08-03T04:32:45;100991.38;;;19.15;73.75
48204;BME280;33994;50.998;5.864;2022-08-03T04:35:54;100994.75;;;19.19;73.75
48204;BME280;33994;50.998;5.864;2022-08-03T04:39:12;101009.78;;;19.18;73.86
48204;BME280;33994;50.998;5.864;2022-08-03T04:42:19;100998.38;;;19.16;73.68
48204;BME280;33994;50.998;5.864;2022-08-03T04:45:30;101007.28;;;19.15;74.08
48204;BME280;33994;50.998;5.864;2022-08-03T04:48:35;101009.78;;;19.18;73.94
48204;BME280;33994;50.998;5.864;2022-08-03T04:51:40;101012.34;;;19.20;74.02
48204;BME280;33994;50.998;5.864;2022-08-03T04:54:44;101011.41;;;19.21;73.96
48204;BME280;33994;50.998;5.864;2022-08-03T04:57:50;101006.91;;;19.23;74.06
48204;BME280;33994;50.998;5.864;2022-08-03T05:00:54;101013.66;;;19.30;73.91
48204;BME280;33994;50.998;5.864;2022-08-03T05:03:58;101011.63;;;19.35;73.72
48204;BME280;33994;50.998;5.864;2022-08-03T05:07:02;101019.34;;;19.40;73.80
48204;BME280;33994;50.998;5.864;2022-08-03T05:10:09;101017.50;;;19.42;73.75
48204;BME280;33994;50.998;5.864;2022-08-03T05:13:13;101019.91;;;19.47;73.62
48204;BME280;33994;50.998;5.864;2022-08-03T05:16:18;101021.50;;;19.51;73.65
48204;BME280;33994;50.998;5.864;2022-08-03T05:19:22;101029.25;;;19.55;73.61
48204;BME280;33994;50.998;5.864;2022-08-03T05:22:27;101024.34;;;19.65;73.48
48204;BME280;33994;50.998;5.864;2022-08-03T05:25:31;101022.03;;;19.76;73.31
48204;BME280;33994;50.998;5.864;2022-08-03T05:28:36;101019.63;;;20.06;72.56
48204;BME280;33994;50.998;5.864;2022-08-03T05:31:40;101017.88;;;20.23;71.97
48204;BME280;33994;50.998;5.864;2022-08-03T05:34:44;101026.44;;;20.28;71.68
48204;BME280;33994;50.998;5.864;2022-08-03T05:37:49;101025.22;;;20.35;71.66
48204;BME280;33994;50.998;5.864;2022-08-03T05:40:53;101023.88;;;20.44;71.46
48204;BME280;33994;50.998;5.864;2022-08-03T05:43:58;101024.41;;;20.50;71.07
48204;BME280;33994;50.998;5.864;2022-08-03T05:47:04;101028.38;;;20.59;70.92
48204;BME280;33994;50.998;5.864;2022-08-03T05:50:12;101033.09;;;20.70;70.72
48204;BME280;33994;50.998;5.864;2022-08-03T05:53:16;101035.28;;;20.79;70.17
48204;BME280;33994;50.998;5.864;2022-08-03T05:56:22;101037.09;;;20.94;69.88
48204;BME280;33994;50.998;5.864;2022-08-03T05:59:27;101032.56;;;21.12;69.19
48204;BME280;33994;50.998;5.864;2022-08-03T06:02:31;101038.69;;;21.30;68.67
48204;BME280;33994;50.998;5.864;2022-08-03T06:05:36;101035.50;;;21.39;68.43
48204;BME280;33994;50.998;5.864;2022-08-03T06:08:41;101040.13;;;21.51;67.67
48204;BME280;33994;50.998;5.864;2022-08-03T06:11:46;101030.47;;;21.65;67.67
48204;BME280;33994;50.998;5.864;2022-08-03T06:14:50;101033.03;;;21.82;66.64
48204;BME280;33994;50.998;5.864;2022-08-03T06:17:55;101031.47;;;21.94;66.34
48204;BME280;33994;50.998;5.864;2022-08-03T06:20:59;101030.97;;;22.17;65.84
48204;BME280;33994;50.998;5.864;2022-08-03T06:24:04;101032.97;;;22.42;65.00
48204;BME280;33994;50.998;5.864;2022-08-03T06:27:08;101027.06;;;22.66;64.31
48204;BME280;33994;50.998;5.864;2022-08-03T06:30:14;101028.81;;;22.81;63.61
48204;BME280;33994;50.998;5.864;2022-08-03T06:33:19;101035.88;;;22.96;63.39
48204;BME280;33994;50.998;5.864;2022-08-03T06:36:23;101034.00;;;23.25;62.68
48204;BME280;33994;50.998;5.864;2022-08-03T06:39:33;101033.28;;;23.50;62.02
48204;BME280;33994;50.998;5.864;2022-08-03T06:42:37;101033.97;;;23.67;61.55
48204;BME280;33994;50.998;5.864;2022-08-03T06:45:42;101033.91;;;23.81;61.13
48204;BME280;33994;50.998;5.864;2022-08-03T06:48:47;101028.91;;;24.02;60.48
48204;BME280;33994;50.998;5.864;2022-08-03T06:51:51;101031.97;;;24.23;59.84
48204;BME280;33994;50.998;5.864;2022-08-03T06:54:56;101028.97;;;24.40;59.38
48204;BME280;33994;50.998;5.864;2022-08-03T06:58:01;101033.03;;;24.59;59.06
48204;BME280;33994;50.998;5.864;2022-08-03T07:01:05;101034.09;;;24.69;58.89
48204;BME280;33994;50.998;5.864;2022-08-03T07:04:10;101036.44;;;24.86;58.07
48204;BME280;33994;50.998;5.864;2022-08-03T07:07:14;101033.78;;;24.86;58.07
48204;BME280;33994;50.998;5.864;2022-08-03T07:10:19;101041.75;;;25.12;57.52
48204;BME280;33994;50.998;5.864;2022-08-03T07:13:23;101044.38;;;25.24;56.91
48204;BME280;33994;50.998;5.864;2022-08-03T07:16:28;101041.69;;;25.37;56.41
48204;BME280;33994;50.998;5.864;2022-08-03T07:19:32;101043.03;;;25.67;56.01
48204;BME280;33994;50.998;5.864;2022-08-03T07:22:37;101041.09;;;25.93;55.19
48204;BME280;33994;50.998;5.864;2022-08-03T07:25:41;101041.97;;;26.05;54.63
48204;BME280;33994;50.998;5.864;2022-08-03T07:28:46;101044.28;;;25.98;54.35
48204;BME280;33994;50.998;5.864;2022-08-03T07:31:50;101048.72;;;25.86;54.25
48204;BME280;33994;50.998;5.864;2022-08-03T07:34:54;101049.03;;;25.94;53.84
48204;BME280;33994;50.998;5.864;2022-08-03T07:37:59;101050.38;;;26.00;53.63
48204;BME280;33994;50.998;5.864;2022-08-03T07:41:03;101042.09;;;26.03;53.29
48204;BME280;33994;50.998;5.864;2022-08-03T07:44:08;101032.22;;;26.04;53.10
48204;BME280;33994;50.998;5.864;2022-08-03T07:47:24;101042.47;;;25.98;52.16
48204;BME280;33994;50.998;5.864;2022-08-03T07:50:28;101030.75;;;26.00;52.81
48204;BME280;33994;50.998;5.864;2022-08-03T07:53:32;101042.59;;;26.08;52.68
48204;BME280;33994;50.998;5.864;2022-08-03T07:56:37;101042.88;;;26.16;52.22
48204;BME280;33994;50.998;5.864;2022-08-03T07:59:41;101042.78;;;26.18;52.14
48204;BME280;33994;50.998;5.864;2022-08-03T08:02:45;101040.59;;;26.23;52.04
48204;BME280;33994;50.998;5.864;2022-08-03T08:05:50;101046.19;;;26.31;52.00
48204;BME280;33994;50.998;5.864;2022-08-03T08:08:55;101039.16;;;26.41;51.98
48204;BME280;33994;50.998;5.864;2022-08-03T08:12:03;101036.50;;;26.53;51.65
48204;BME280;33994;50.998;5.864;2022-08-03T08:15:09;101032.44;;;26.47;51.52
48204;BME280;33994;50.998;5.864;2022-08-03T08:18:14;101039.78;;;26.45;51.59
48204;BME280;33994;50.998;5.864;2022-08-03T08:21:18;101035.88;;;26.49;51.46
48204;BME280;33994;50.998;5.864;2022-08-03T08:24:23;101039.41;;;26.50;51.45
48204;BME280;33994;50.998;5.864;2022-08-03T08:27:27;101036.72;;;26.50;51.30
48204;BME280;33994;50.998;5.864;2022-08-03T08:30:32;101041.84;;;26.53;51.11
48204;BME280;33994;50.998;5.864;2022-08-03T08:33:37;101045.63;;;26.50;51.40
48204;BME280;33994;50.998;5.864;2022-08-03T08:36:41;101035.88;;;26.49;51.71
48204;BME280;33994;50.998;5.864;2022-08-03T08:39:45;101032.81;;;26.54;51.80
48204;BME280;33994;50.998;5.864;2022-08-03T08:42:49;101040.16;;;26.63;51.57
48204;BME280;33994;50.998;5.864;2022-08-03T08:45:56;101036.59;;;26.62;51.56
48204;BME280;33994;50.998;5.864;2022-08-03T08:49:01;101039.19;;;26.64;51.47
48204;BME280;33994;50.998;5.864;2022-08-03T08:52:10;101046.84;;;26.57;51.48
48204;BME280;33994;50.998;5.864;2022-08-03T08:55:20;101047.22;;;26.53;51.83
48204;BME280;33994;50.998;5.864;2022-08-03T08:58:28;101043.31;;;26.57;51.60
48204;BME280;33994;50.998;5.864;2022-08-03T09:01:33;101043.09;;;26.60;51.45
48204;BME280;33994;50.998;5.864;2022-08-03T09:04:38;101034.06;;;26.61;51.33
48204;BME280;33994;50.998;5.864;2022-08-03T09:07:43;101040.41;;;26.60;51.18
48204;BME280;33994;50.998;5.864;2022-08-03T09:10:48;101044.31;;;26.67;51.22
48204;BME280;33994;50.998;5.864;2022-08-03T09:13:53;101038.44;;;26.73;50.97
48204;BME280;33994;50.998;5.864;2022-08-03T09:16:58;101040.78;;;26.78;50.70
48204;BME280;33994;50.998;5.864;2022-08-03T09:20:05;101034.09;;;26.83;50.34
48204;BME280;33994;50.998;5.864;2022-08-03T09:23:10;101042.59;;;26.88;50.33
48204;BME280;33994;50.998;5.864;2022-08-03T09:26:22;101041.53;;;26.91;50.31
48204;BME280;33994;50.998;5.864;2022-08-03T09:29:31;101036.25;;;27.01;50.40
48204;BME280;33994;50.998;5.864;2022-08-03T09:32:36;101033.31;;;27.04;50.12
48204;BME280;33994;50.998;5.864;2022-08-03T09:35:42;101039.19;;;27.09;50.24
48204;BME280;33994;50.998;5.864;2022-08-03T09:39:00;101041.88;;;27.09;49.80
48204;BME280;33994;50.998;5.864;2022-08-03T09:42:16;101031.59;;;27.14;50.60
48204;BME280;33994;50.998;5.864;2022-08-03T09:45:27;101030.84;;;27.23;49.93
48204;BME280;33994;50.998;5.864;2022-08-03T09:48:31;101036.09;;;27.25;49.70
48204;BME280;33994;50.998;5.864;2022-08-03T09:51:36;101030.59;;;27.26;49.76
48204;BME280;33994;50.998;5.864;2022-08-03T09:54:41;101030.09;;;27.32;49.22
48204;BME280;33994;50.998;5.864;2022-08-03T09:57:46;101029.75;;;27.37;49.29
48204;BME280;33994;50.998;5.864;2022-08-03T10:03:59;101028.63;;;27.51;49.14
48204;BME280;33994;50.998;5.864;2022-08-03T10:10:10;101022.47;;;27.60;48.63
48204;BME280;33994;50.998;5.864;2022-08-03T10:13:17;101024.75;;;27.64;48.52
48204;BME280;33994;50.998;5.864;2022-08-03T10:16:21;101019.00;;;27.69;48.64
48204;BME280;33994;50.998;5.864;2022-08-03T10:19:25;101014.59;;;27.68;48.41
48204;BME280;33994;50.998;5.864;2022-08-03T10:22:32;101013.03;;;27.65;48.51
48204;BME280;33994;50.998;5.864;2022-08-03T10:25:39;101009.69;;;27.73;47.90
48204;BME280;33994;50.998;5.864;2022-08-03T10:28:52;101015.53;;;27.78;47.63
48204;BME280;33994;50.998;5.864;2022-08-03T10:31:58;101007.09;;;27.83;47.45
48204;BME280;33994;50.998;5.864;2022-08-03T10:38:17;101007.59;;;27.77;47.30
48204;BME280;33994;50.998;5.864;2022-08-03T10:41:25;101001.38;;;27.76;47.04
48204;BME280;33994;50.998;5.864;2022-08-03T10:44:32;100988.66;;;27.78;47.14
48204;BME280;33994;50.998;5.864;2022-08-03T10:47:40;100992.91;;;27.81;47.05
48204;BME280;33994;50.998;5.864;2022-08-03T10:50:47;100992.34;;;27.77;46.03
48204;BME280;33994;50.998;5.864;2022-08-03T10:53:52;100996.00;;;27.76;45.73
48204;BME280;33994;50.998;5.864;2022-08-03T10:56:56;100986.69;;;27.80;45.03
48204;BME280;33994;50.998;5.864;2022-08-03T11:00:23;100990.63;;;27.76;44.17
48204;BME280;33994;50.998;5.864;2022-08-03T11:03:28;100981.47;;;27.79;44.67
48204;BME280;33994;50.998;5.864;2022-08-03T11:06:31;100985.34;;;27.86;44.46
48204;BME280;33994;50.998;5.864;2022-08-03T11:09:44;100980.50;;;28.01;44.15
48204;BME280;33994;50.998;5.864;2022-08-03T11:12:49;100983.78;;;28.04;44.25
48204;BME280;33994;50.998;5.864;2022-08-03T11:15:56;100988.28;;;28.04;43.73
48204;BME280;33994;50.998;5.864;2022-08-03T11:19:07;100976.09;;;28.00;43.47
48204;BME280;33994;50.998;5.864;2022-08-03T11:22:12;100974.75;;;28.05;43.65
48204;BME280;33994;50.998;5.864;2022-08-03T11:25:17;100975.31;;;28.09;42.93
48204;BME280;33994;50.998;5.864;2022-08-03T11:28:26;100967.59;;;28.16;42.56
48204;BME280;33994;50.998;5.864;2022-08-03T11:38:18;100956.44;;;28.20;43.07
48204;BME280;33994;50.998;5.864;2022-08-03T11:41:32;100956.34;;;28.10;43.03
48204;BME280;33994;50.998;5.864;2022-08-03T11:44:40;100966.13;;;28.11;42.89
48204;BME280;33994;50.998;5.864;2022-08-03T11:47:46;100962.06;;;28.17;42.76
48204;BME280;33994;50.998;5.864;2022-08-03T11:50:51;100967.19;;;28.20;42.66
48204;BME280;33994;50.998;5.864;2022-08-03T11:53:58;100964.84;;;28.06;43.02
48204;BME280;33994;50.998;5.864;2022-08-03T11:57:03;100959.44;;;28.06;43.01
48204;BME280;33994;50.998;5.864;2022-08-03T12:00:29;100965.16;;;28.12;42.24
48204;BME280;33994;50.998;5.864;2022-08-03T12:03:34;100950.41;;;28.07;42.66
48204;BME280;33994;50.998;5.864;2022-08-03T12:06:38;100959.19;;;28.09;42.87
48204;BME280;33994;50.998;5.864;2022-08-03T12:09:30;100955.25;;;28.13;43.07
48204;BME280;33994;50.998;5.864;2022-08-03T12:12:39;100952.03;;;28.19;43.14
48204;BME280;33994;50.998;5.864;2022-08-03T12:15:50;100946.94;;;28.16;42.53
48204;BME280;33994;50.998;5.864;2022-08-03T12:18:56;100947.78;;;28.17;42.95
48204;BME280;33994;50.998;5.864;2022-08-03T12:22:00;100949.06;;;28.22;43.13
48204;BME280;33994;50.998;5.864;2022-08-03T12:25:06;100944.06;;;28.38;42.72
48204;BME280;33994;50.998;5.864;2022-08-03T12:28:20;100946.06;;;28.46;42.09
48204;BME280;33994;50.998;5.864;2022-08-03T12:31:25;100948.88;;;28.45;42.51
48204;BME280;33994;50.998;5.864;2022-08-03T12:34:47;100942.38;;;28.47;42.38
48204;BME280;33994;50.998;5.864;2022-08-03T12:37:51;100950.44;;;28.47;42.92
48204;BME280;33994;50.998;5.864;2022-08-03T12:41:01;100939.84;;;28.55;42.59
48204;BME280;33994;50.998;5.864;2022-08-03T12:44:07;100940.13;;;28.52;42.39
48204;BME280;33994;50.998;5.864;2022-08-03T12:47:11;100940.31;;;28.60;42.04
48204;BME280;33994;50.998;5.864;2022-08-03T12:53:29;100934.47;;;28.55;41.53
48204;BME280;33994;50.998;5.864;2022-08-03T12:56:34;100935.59;;;28.53;41.94
48204;BME280;33994;50.998;5.864;2022-08-03T12:59:44;100932.91;;;28.53;42.30
48204;BME280;33994;50.998;5.864;2022-08-03T13:03:04;100931.22;;;28.52;41.84
48204;BME280;33994;50.998;5.864;2022-08-03T13:06:11;100925.13;;;28.50;42.53
48204;BME280;33994;50.998;5.864;2022-08-03T13:09:16;100918.78;;;28.60;42.19
48204;BME280;33994;50.998;5.864;2022-08-03T13:12:26;100917.84;;;28.71;42.17
48204;BME280;33994;50.998;5.864;2022-08-03T13:15:30;100920.94;;;28.76;42.45
48204;BME280;33994;50.998;5.864;2022-08-03T13:18:35;100916.44;;;28.86;42.33
48204;BME280;33994;50.998;5.864;2022-08-03T13:21:39;100923.97;;;28.93;41.99
48204;BME280;33994;50.998;5.864;2022-08-03T13:24:45;100922.72;;;28.97;41.58
48204;BME280;33994;50.998;5.864;2022-08-03T13:27:50;100915.06;;;28.92;41.43
48204;BME280;33994;50.998;5.864;2022-08-03T13:30:54;100917.88;;;28.81;41.84
48204;BME280;33994;50.998;5.864;2022-08-03T13:33:58;100916.19;;;28.90;42.09
48204;BME280;33994;50.998;5.864;2022-08-03T13:37:03;100924.28;;;28.99;42.01
48204;BME280;33994;50.998;5.864;2022-08-03T13:40:08;100910.25;;;28.96;41.98
48204;BME280;33994;50.998;5.864;2022-08-03T13:43:13;100921.00;;;28.96;41.77
48204;BME280;33994;50.998;5.864;2022-08-03T13:46:17;100916.75;;;28.93;41.64
48204;BME280;33994;50.998;5.864;2022-08-03T13:49:22;100909.38;;;28.85;41.35
48204;BME280;33994;50.998;5.864;2022-08-03T13:52:26;100897.19;;;28.81;41.54
48204;BME280;33994;50.998;5.864;2022-08-03T13:55:31;100903.84;;;28.77;41.31
48204;BME280;33994;50.998;5.864;2022-08-03T13:58:35;100900.41;;;28.75;41.08
48204;BME280;33994;50.998;5.864;2022-08-03T14:01:40;100892.06;;;28.78;41.22
48204;BME280;33994;50.998;5.864;2022-08-03T14:04:44;100895.63;;;28.79;41.19
48204;BME280;33994;50.998;5.864;2022-08-03T14:07:48;100882.72;;;28.82;41.63
48204;BME280;33994;50.998;5.864;2022-08-03T14:10:52;100887.97;;;28.94;41.45
48204;BME280;33994;50.998;5.864;2022-08-03T14:13:57;100885.72;;;28.99;41.13
48204;BME280;33994;50.998;5.864;2022-08-03T14:17:01;100878.50;;;29.09;40.62
48204;BME280;33994;50.998;5.864;2022-08-03T14:20:07;100879.66;;;29.16;40.32
48204;BME280;33994;50.998;5.864;2022-08-03T14:23:11;100876.22;;;29.14;40.65
48204;BME280;33994;50.998;5.864;2022-08-03T14:26:16;100878.22;;;29.12;40.69
48204;BME280;33994;50.998;5.864;2022-08-03T14:29:22;100870.28;;;29.01;40.36
48204;BME280;33994;50.998;5.864;2022-08-03T14:32:26;100860.50;;;28.90;40.70
48204;BME280;33994;50.998;5.864;2022-08-03T14:35:30;100862.78;;;28.85;40.60
48204;BME280;33994;50.998;5.864;2022-08-03T14:38:35;100860.34;;;28.82;40.97
48204;BME280;33994;50.998;5.864;2022-08-03T14:41:39;100858.50;;;28.82;41.22
48204;BME280;33994;50.998;5.864;2022-08-03T14:44:43;100847.19;;;28.89;41.15
48204;BME280;33994;50.998;5.864;2022-08-03T14:47:48;100844.50;;;28.89;41.48
48204;BME280;33994;50.998;5.864;2022-08-03T14:50:52;100850.56;;;28.91;41.46
48204;BME280;33994;50.998;5.864;2022-08-03T14:53:58;100847.03;;;28.90;41.40
48204;BME280;33994;50.998;5.864;2022-08-03T14:57:02;100843.34;;;28.91;41.35
48204;BME280;33994;50.998;5.864;2022-08-03T15:00:07;100841.09;;;28.96;40.27
48204;BME280;33994;50.998;5.864;2022-08-03T15:03:12;100838.25;;;28.98;39.90
48204;BME280;33994;50.998;5.864;2022-08-03T15:06:16;100838.53;;;28.95;39.88
48204;BME280;33994;50.998;5.864;2022-08-03T15:09:20;100841.94;;;28.97;39.22
48204;BME280;33994;50.998;5.864;2022-08-03T15:12:25;100832.88;;;28.98;38.85
48204;BME280;33994;50.998;5.864;2022-08-03T15:15:29;100833.88;;;28.97;39.53
48204;BME280;33994;50.998;5.864;2022-08-03T15:18:33;100827.06;;;28.93;39.85
48204;BME280;33994;50.998;5.864;2022-08-03T15:21:38;100837.69;;;28.94;40.55
48204;BME280;33994;50.998;5.864;2022-08-03T15:24:42;100820.69;;;28.94;40.92
48204;BME280;33994;50.998;5.864;2022-08-03T15:27:47;100828.75;;;28.94;41.04
48204;BME280;33994;50.998;5.864;2022-08-03T15:30:51;100822.38;;;28.95;40.58
48204;BME280;33994;50.998;5.864;2022-08-03T15:33:56;100817.84;;;28.95;40.29
48204;BME280;33994;50.998;5.864;2022-08-03T15:37:00;100817.00;;;28.95;40.65
48204;BME280;33994;50.998;5.864;2022-08-03T15:40:04;100816.88;;;28.96;41.04
48204;BME280;33994;50.998;5.864;2022-08-03T15:43:09;100817.44;;;29.00;41.18
48204;BME280;33994;50.998;5.864;2022-08-03T15:46:14;100811.94;;;28.92;40.78
48204;BME280;33994;50.998;5.864;2022-08-03T15:49:19;100806.25;;;28.85;40.92
48204;BME280;33994;50.998;5.864;2022-08-03T15:52:23;100799.59;;;28.89;40.73
48204;BME280;33994;50.998;5.864;2022-08-03T15:55:28;100802.56;;;28.96;40.61
48204;BME280;33994;50.998;5.864;2022-08-03T15:58:32;100795.47;;;28.95;40.62
48204;BME280;33994;50.998;5.864;2022-08-03T16:01:37;100798.72;;;28.98;39.89
48204;BME280;33994;50.998;5.864;2022-08-03T16:04:42;100799.56;;;28.99;39.94
48204;BME280;33994;50.998;5.864;2022-08-03T16:07:46;100792.38;;;28.99;40.00
48204;BME280;33994;50.998;5.864;2022-08-03T16:10:56;100799.00;;;28.95;40.07
48204;BME280;33994;50.998;5.864;2022-08-03T16:14:01;100795.78;;;28.92;40.43
48204;BME280;33994;50.998;5.864;2022-08-03T16:17:05;100785.00;;;28.92;40.43
48204;BME280;33994;50.998;5.864;2022-08-03T16:20:10;100785.97;;;28.91;40.33
48204;BME280;33994;50.998;5.864;2022-08-03T16:23:15;100784.13;;;28.91;40.48
48204;BME280;33994;50.998;5.864;2022-08-03T16:26:20;100785.28;;;28.89;40.66
48204;BME280;33994;50.998;5.864;2022-08-03T16:29:25;100771.38;;;28.83;40.64
48204;BME280;33994;50.998;5.864;2022-08-03T16:32:29;100775.66;;;28.86;40.89
48204;BME280;33994;50.998;5.864;2022-08-03T16:35:34;100771.00;;;28.88;40.56
48204;BME280;33994;50.998;5.864;2022-08-03T16:38:39;100761.34;;;28.85;40.69
48204;BME280;33994;50.998;5.864;2022-08-03T16:41:43;100771.38;;;28.83;40.98
48204;BME280;33994;50.998;5.864;2022-08-03T16:44:47;100768.69;;;28.83;40.98